createdAt,value
2023-03-06T00:00:58.865Z,86.70
2023-03-06T00:01:58.841Z,86.49
2023-03-06T00:02:58.833Z,87.01
2023-03-06T00:03:58.959Z,87.12
2023-03-06T00:04:58.813Z,86.80
2023-03-06T00:05:59.196Z,87.43
2023-03-06T00:06:58.800Z,87.63
2023-03-06T00:07:58.768Z,87.63
2023-03-06T00:08:58.756Z,87.32
2023-03-06T00:09:58.740Z,87.63
2023-03-06T00:10:58.740Z,88.05
2023-03-06T00:11:58.730Z,87.74
2023-03-06T00:12:58.736Z,88.15
2023-03-06T00:13:58.700Z,88.15
2023-03-06T00:14:58.689Z,88.15
2023-03-06T00:15:58.749Z,87.95
2023-03-06T00:16:58.689Z,88.46
2023-03-06T00:17:58.652Z,88.05
2023-03-06T00:18:58.654Z,88.05
2023-03-06T00:19:58.663Z,88.57
2023-03-06T00:20:58.639Z,87.84
2023-03-06T00:21:58.622Z,88.36
2023-03-06T00:22:58.625Z,88.36
2023-03-06T00:23:58.599Z,88.26
2023-03-06T00:24:58.597Z,88.78
2023-03-06T00:25:58.580Z,88.67
2023-03-06T00:26:58.558Z,88.46
2023-03-06T00:27:58.566Z,88.57
2023-03-06T00:28:58.566Z,88.46
2023-03-06T00:29:58.542Z,88.36
2023-03-06T00:30:58.513Z,88.57
2023-03-06T00:31:58.511Z,88.46
2023-03-06T00:32:58.506Z,88.67
2023-03-06T00:33:58.495Z,88.78
2023-03-06T00:34:58.468Z,89.03
2023-03-06T00:35:58.565Z,88.92
2023-03-06T00:36:58.443Z,89.13
2023-03-06T00:37:58.430Z,89.23
2023-03-06T00:38:58.420Z,89.23
2023-03-06T00:39:58.947Z,89.23
2023-03-06T00:40:58.402Z,89.13
2023-03-06T00:41:58.403Z,89.44
2023-03-06T00:42:58.375Z,90.06
2023-03-06T00:43:58.379Z,89.58
2023-03-06T00:44:58.363Z,89.58
2023-03-06T00:45:58.423Z,90.06
2023-03-06T00:46:58.344Z,90.06
2023-03-06T00:47:58.322Z,90.10
2023-03-06T00:48:58.305Z,89.65
2023-03-06T00:49:58.303Z,89.79
2023-03-06T00:50:58.288Z,89.69
2023-03-06T00:51:58.306Z,89.89
2023-03-06T00:52:58.273Z,89.89
2023-03-06T00:53:58.251Z,90.10
2023-03-06T00:54:58.248Z,90.00
2023-03-06T00:55:58.234Z,90.41
2023-03-06T00:56:58.237Z,90.31
2023-03-06T00:57:58.206Z,90.62
2023-03-06T00:58:58.210Z,90.41
2023-03-06T00:59:58.184Z,90.41
2023-03-06T01:00:58.217Z,90.41
2023-03-06T01:01:58.327Z,90.83
2023-03-06T01:02:58.168Z,90.83
2023-03-06T01:03:58.162Z,90.83
2023-03-06T01:04:58.130Z,90.83
2023-03-06T01:05:58.142Z,90.72
2023-03-06T01:06:58.106Z,90.52
2023-03-06T01:07:58.115Z,90.20
2023-03-06T01:08:58.095Z,90.62
2023-03-06T01:09:58.069Z,90.10
2023-03-06T01:10:58.066Z,90.72
2023-03-06T01:11:58.052Z,90.20
2023-03-06T01:12:58.038Z,90.52
2023-03-06T01:13:58.042Z,90.31
2023-03-06T01:14:58.024Z,90.93
2023-03-06T01:15:58.007Z,90.62
2023-03-06T01:16:57.994Z,90.62
2023-03-06T01:17:57.982Z,90.58
2023-03-06T01:18:57.983Z,90.72
2023-03-06T01:19:57.980Z,90.72
2023-03-06T01:20:57.956Z,90.83
2023-03-06T01:21:57.945Z,90.79
2023-03-06T01:22:57.935Z,90.83
2023-03-06T01:23:57.938Z,90.83
2023-03-06T01:24:57.911Z,90.62
2023-03-06T01:25:57.913Z,90.62
2023-03-06T01:26:57.885Z,90.93
2023-03-06T01:27:57.868Z,90.10
2023-03-06T01:28:57.871Z,90.41
2023-03-06T01:29:57.850Z,90.93
2023-03-06T01:30:57.837Z,90.93
2023-03-06T01:31:57.882Z,91.14
2023-03-06T01:32:57.819Z,90.93
2023-03-06T01:33:57.823Z,90.83
2023-03-06T01:34:57.795Z,90.72
2023-03-06T01:35:57.800Z,90.79
2023-03-06T01:36:57.775Z,90.83
2023-03-06T01:37:57.772Z,90.58
2023-03-06T01:38:57.752Z,90.58
2023-03-06T01:39:57.791Z,91.10
2023-03-06T01:40:57.732Z,91.00
2023-03-06T01:41:57.716Z,90.06
2023-03-06T01:42:57.710Z,90.27
2023-03-06T01:43:57.714Z,90.27
2023-03-06T01:44:57.700Z,90.10
2023-03-06T01:45:57.801Z,90.17
2023-03-06T01:46:57.666Z,90.31
2023-03-06T01:47:57.654Z,90.93
2023-03-06T01:48:57.659Z,90.48
2023-03-06T01:49:57.651Z,90.69
2023-03-06T01:50:57.625Z,90.83
2023-03-06T01:51:57.610Z,90.83
2023-03-06T01:52:57.604Z,90.72
2023-03-06T01:53:57.584Z,90.83
2023-03-06T01:54:57.595Z,90.62
2023-03-06T01:55:57.601Z,90.52
2023-03-06T01:56:57.557Z,90.62
2023-03-06T01:57:57.552Z,90.31
2023-03-06T01:58:57.533Z,90.41
2023-03-06T01:59:57.525Z,90.93
2023-03-06T02:00:57.590Z,91.18
2023-03-06T02:01:57.529Z,91.70
2023-03-06T02:02:57.491Z,91.55
2023-03-06T02:03:57.478Z,91.70
2023-03-06T02:04:57.470Z,91.39
2023-03-06T02:05:57.469Z,92.11
2023-03-06T02:06:57.463Z,92.11
2023-03-06T02:07:57.444Z,91.85
2023-03-06T02:08:57.425Z,91.53
2023-03-06T02:09:57.411Z,92.01
2023-03-06T02:10:57.413Z,91.85
2023-03-06T02:11:57.422Z,92.05
2023-03-06T02:12:57.393Z,92.05
2023-03-06T02:13:57.369Z,92.05
2023-03-06T02:14:57.364Z,91.74
2023-03-06T02:15:57.349Z,91.95
2023-03-06T02:16:57.379Z,91.95
2023-03-06T02:17:57.357Z,92.16
2023-03-06T02:18:57.330Z,92.47
2023-03-06T02:19:57.303Z,92.36
2023-03-06T02:20:57.309Z,92.36
2023-03-06T02:21:57.281Z,92.47
2023-03-06T02:22:57.273Z,92.78
2023-03-06T02:23:57.280Z,92.68
2023-03-06T02:24:57.262Z,93.14
2023-03-06T02:25:57.248Z,93.30
2023-03-06T02:26:57.235Z,93.30
2023-03-06T02:27:57.237Z,93.03
2023-03-06T02:28:57.211Z,93.10
2023-03-06T02:29:57.205Z,92.99
2023-03-06T02:30:57.241Z,93.30
2023-03-06T02:31:57.196Z,93.14
2023-03-06T02:32:57.164Z,92.61
2023-03-06T02:33:57.161Z,92.93
2023-03-06T02:34:57.144Z,92.93
2023-03-06T02:35:57.185Z,93.24
2023-03-06T02:36:57.127Z,92.78
2023-03-06T02:37:57.111Z,93.03
2023-03-06T02:38:57.096Z,92.93
2023-03-06T02:39:57.093Z,92.61
2023-03-06T02:40:57.079Z,93.66
2023-03-06T02:41:57.068Z,93.66
2023-03-06T02:42:57.068Z,92.99
2023-03-06T02:43:57.060Z,92.93
2023-03-06T02:44:57.038Z,93.03
2023-03-06T02:45:57.042Z,93.14
2023-03-06T02:46:57.011Z,93.14
2023-03-06T02:47:56.998Z,92.68
2023-03-06T02:48:56.997Z,93.14
2023-03-06T02:49:56.977Z,93.03
2023-03-06T02:50:56.965Z,92.82
2023-03-06T02:51:56.948Z,92.93
2023-03-06T02:52:56.945Z,93.24
2023-03-06T02:53:56.928Z,93.03
2023-03-06T02:54:56.950Z,93.07
2023-03-06T02:55:56.905Z,93.49
2023-03-06T02:56:56.896Z,93.66
2023-03-06T02:57:56.892Z,93.29
2023-03-06T02:58:56.881Z,93.49
2023-03-06T02:59:56.884Z,93.29
2023-03-06T03:00:56.890Z,93.49
2023-03-06T03:01:56.836Z,93.07
2023-03-06T03:02:56.833Z,94.01
2023-03-06T03:03:56.817Z,94.22
2023-03-06T03:04:56.896Z,93.91
2023-03-06T03:05:56.789Z,94.12
2023-03-06T03:06:56.803Z,94.22
2023-03-06T03:07:56.774Z,94.22
2023-03-06T03:08:56.760Z,94.01
2023-03-06T03:09:56.745Z,94.12
2023-03-06T03:10:56.738Z,94.01
2023-03-06T03:11:56.731Z,94.37
2023-03-06T03:12:56.723Z,94.26
2023-03-06T03:13:56.700Z,94.26
2023-03-06T03:14:56.732Z,93.91
2023-03-06T03:15:56.816Z,94.12
2023-03-06T03:16:56.705Z,94.22
2023-03-06T03:18:04.249Z,93.70
2023-03-06T03:18:56.653Z,94.37
2023-03-06T03:19:56.747Z,94.43
2023-03-06T03:20:56.639Z,94.16
2023-03-06T03:21:56.621Z,94.89
2023-03-06T03:22:56.663Z,94.99
2023-03-06T03:23:56.619Z,95.26
2023-03-06T03:24:56.666Z,95.36
2023-03-06T03:25:56.586Z,95.26
2023-03-06T03:26:56.564Z,94.84
2023-03-06T03:27:56.563Z,94.95
2023-03-06T03:28:56.548Z,95.15
2023-03-06T03:29:56.525Z,94.78
2023-03-06T03:30:56.570Z,95.09
2023-03-06T03:31:56.531Z,95.30
2023-03-06T03:32:56.516Z,95.26
2023-03-06T03:33:56.496Z,95.36
2023-03-06T03:34:56.509Z,94.95
2023-03-06T03:35:56.473Z,95.30
2023-03-06T03:36:56.465Z,95.30
2023-03-06T03:37:56.451Z,94.99
2023-03-06T03:38:56.440Z,95.05
2023-03-06T03:39:56.446Z,95.51
2023-03-06T03:40:56.427Z,95.09
2023-03-06T03:41:56.415Z,95.20
2023-03-06T03:42:56.398Z,94.95
2023-03-06T03:43:56.378Z,95.36
2023-03-06T03:44:56.386Z,95.05
2023-03-06T03:45:56.362Z,95.72
2023-03-06T03:46:56.361Z,95.20
2023-03-06T03:47:56.370Z,95.47
2023-03-06T03:48:56.334Z,94.95
2023-03-06T03:49:56.318Z,95.09
2023-03-06T03:50:56.309Z,95.57
2023-03-06T03:51:56.304Z,95.93
2023-03-06T03:52:56.288Z,95.93
2023-03-06T03:53:56.286Z,95.72
2023-03-06T03:54:56.259Z,95.62
2023-03-06T03:55:56.250Z,95.72
2023-03-06T03:56:56.236Z,95.20
2023-03-06T03:57:56.251Z,95.62
2023-03-06T03:58:56.207Z,95.51
2023-03-06T03:59:56.210Z,95.20
2023-03-06T04:00:56.191Z,95.62
2023-03-06T04:01:56.257Z,95.62
2023-03-06T04:02:56.169Z,95.72
2023-03-06T04:03:56.181Z,95.72
2023-03-06T04:04:56.174Z,95.93
2023-03-06T04:05:56.133Z,95.89
2023-03-06T04:06:56.153Z,95.83
2023-03-06T04:07:56.118Z,95.72
2023-03-06T04:08:56.094Z,95.83
2023-03-06T04:09:56.088Z,96.34
2023-03-06T04:10:56.076Z,96.55
2023-03-06T04:11:56.067Z,96.86
2023-03-06T04:12:56.071Z,96.55
2023-03-06T04:13:56.055Z,96.66
2023-03-06T04:14:56.034Z,96.34
2023-03-06T04:15:56.067Z,96.24
2023-03-06T04:16:56.009Z,96.45
2023-03-06T04:17:56.018Z,96.55
2023-03-06T04:18:56.015Z,96.66
2023-03-06T04:19:56.011Z,96.76
2023-03-06T04:20:55.965Z,96.45
2023-03-06T04:21:55.957Z,96.08
2023-03-06T04:22:55.941Z,96.45
2023-03-06T04:23:55.947Z,96.70
2023-03-06T04:24:55.946Z,96.59
2023-03-06T04:25:55.914Z,97.07
2023-03-06T04:26:55.898Z,97.22
2023-03-06T04:27:55.898Z,96.28
2023-03-06T04:28:55.877Z,96.86
2023-03-06T04:29:55.880Z,97.07
2023-03-06T04:30:55.859Z,96.14
2023-03-06T04:31:55.863Z,97.12
2023-03-06T04:32:55.831Z,96.86
2023-03-06T04:33:55.825Z,97.17
2023-03-06T04:34:55.836Z,96.91
2023-03-06T04:35:55.895Z,97.07
2023-03-06T04:36:55.791Z,96.86
2023-03-06T04:37:55.799Z,96.14
2023-03-06T04:38:55.848Z,96.45
2023-03-06T04:39:55.779Z,96.55
2023-03-06T04:40:55.776Z,96.97
2023-03-06T04:41:55.737Z,96.86
2023-03-06T04:42:55.726Z,96.76
2023-03-06T04:43:55.732Z,96.86
2023-03-06T04:44:55.719Z,97.22
2023-03-06T04:45:55.787Z,97.17
2023-03-06T04:46:55.691Z,97.01
2023-03-06T04:47:55.679Z,96.80
2023-03-06T04:48:55.668Z,96.59
2023-03-06T04:49:55.652Z,96.66
2023-03-06T04:50:55.656Z,96.76
2023-03-06T04:51:55.672Z,96.45
2023-03-06T04:52:55.643Z,97.07
2023-03-06T04:53:55.617Z,97.28
2023-03-06T04:54:55.615Z,97.49
2023-03-06T04:55:55.583Z,97.53
2023-03-06T04:56:55.580Z,97.17
2023-03-06T04:57:55.583Z,97.28
2023-03-06T04:58:55.552Z,97.28
2023-03-06T04:59:55.554Z,97.17
2023-03-06T05:00:55.574Z,97.22
2023-03-06T05:01:55.570Z,97.49
2023-03-06T05:02:55.502Z,97.43
2023-03-06T05:03:55.508Z,97.28
2023-03-06T05:04:55.492Z,97.70
2023-03-06T05:05:55.491Z,97.59
2023-03-06T05:06:55.458Z,97.38
2023-03-06T05:07:56.013Z,97.80
2023-03-06T05:08:55.439Z,97.28
2023-03-06T05:09:55.425Z,97.59
2023-03-06T05:10:55.412Z,97.59
2023-03-06T05:11:55.410Z,97.70
2023-03-06T05:12:55.402Z,97.59
2023-03-06T05:13:55.403Z,97.59
2023-03-06T05:14:55.377Z,97.70
2023-03-06T05:15:55.354Z,97.49
2023-03-06T05:16:55.345Z,97.80
2023-03-06T05:17:55.340Z,97.59
2023-03-06T05:18:55.337Z,97.53
2023-03-06T05:19:55.313Z,97.49
2023-03-06T05:20:55.301Z,97.64
2023-03-06T05:21:55.287Z,97.59
2023-03-06T05:22:55.290Z,97.49
2023-03-06T05:23:55.290Z,97.59
2023-03-06T05:24:55.262Z,97.70
2023-03-06T05:25:55.250Z,97.80
2023-03-06T05:26:55.237Z,97.70
2023-03-06T05:27:55.229Z,97.59
2023-03-06T05:28:55.231Z,97.59
2023-03-06T05:29:55.201Z,97.70
2023-03-06T05:30:55.207Z,97.70
2023-03-06T05:31:55.254Z,97.80
2023-03-06T05:32:55.164Z,97.38
2023-03-06T05:33:55.176Z,97.65
2023-03-06T05:34:55.148Z,97.34
2023-03-06T05:35:55.192Z,97.38
2023-03-06T05:36:55.121Z,97.70
2023-03-06T05:37:55.134Z,97.80
2023-03-06T05:38:55.109Z,97.38
2023-03-06T05:39:55.137Z,97.70
2023-03-06T05:40:55.077Z,97.28
2023-03-06T05:41:55.069Z,97.59
2023-03-06T05:42:55.067Z,97.38
2023-03-06T05:43:55.057Z,97.55
2023-03-06T05:44:55.047Z,97.59
2023-03-06T05:45:55.070Z,97.59
2023-03-06T05:46:55.015Z,97.59
2023-03-06T05:47:55.006Z,97.49
2023-03-06T05:48:55.014Z,97.59
2023-03-06T05:49:54.985Z,97.38
2023-03-06T05:50:54.977Z,97.49
2023-03-06T05:51:54.973Z,97.38
2023-03-06T05:52:54.945Z,97.86
2023-03-06T05:53:54.950Z,97.91
2023-03-06T05:54:54.935Z,97.80
2023-03-06T05:55:54.932Z,98.01
2023-03-06T05:56:54.906Z,98.07
2023-03-06T05:57:54.918Z,98.07
2023-03-06T05:58:54.883Z,98.17
2023-03-06T05:59:54.890Z,98.22
2023-03-06T06:00:54.866Z,98.32
2023-03-06T06:01:54.852Z,98.17
2023-03-06T06:02:54.875Z,98.07
2023-03-06T06:03:54.842Z,98.22
2023-03-06T06:04:54.807Z,98.17
2023-03-06T06:05:54.823Z,98.22
2023-03-06T06:06:54.797Z,98.27
2023-03-06T06:07:54.795Z,98.22
2023-03-06T06:08:54.795Z,98.43
2023-03-06T06:09:54.774Z,98.17
2023-03-06T06:10:54.745Z,98.17
2023-03-06T06:11:54.756Z,97.86
2023-03-06T06:12:54.760Z,99.05
2023-03-06T06:13:54.720Z,99.01
2023-03-06T06:14:54.709Z,98.59
2023-03-06T06:15:54.726Z,98.80
2023-03-06T06:16:54.679Z,98.59
2023-03-06T06:17:54.671Z,98.94
2023-03-06T06:18:54.658Z,98.90
2023-03-06T06:19:54.668Z,99.42
2023-03-06T06:20:56.020Z,99.21
2023-03-06T06:21:54.632Z,98.48
2023-03-06T06:22:54.616Z,98.90
2023-03-06T06:23:54.614Z,98.94
2023-03-06T06:24:54.586Z,98.53
2023-03-06T06:25:54.586Z,98.68
2023-03-06T06:26:54.579Z,98.78
2023-03-06T06:27:54.575Z,99.15
2023-03-06T06:28:54.552Z,98.94
2023-03-06T06:29:54.544Z,98.88
2023-03-06T06:30:54.570Z,99.30
2023-03-06T06:31:54.518Z,99.10
2023-03-06T06:32:54.505Z,98.78
2023-03-06T06:33:54.494Z,98.88
2023-03-06T06:34:54.489Z,98.88
2023-03-06T06:35:54.557Z,98.68
2023-03-06T06:36:54.479Z,99.51
2023-03-06T06:37:54.452Z,99.51
2023-03-06T06:38:54.432Z,99.10
2023-03-06T06:39:54.429Z,99.10
2023-03-06T06:41:30.735Z,98.68
2023-03-06T06:42:14.593Z,98.88
2023-03-06T06:42:55.386Z,99.20
2023-03-06T06:43:54.400Z,99.30
2023-03-06T06:44:54.403Z,99.62
2023-03-06T06:46:05.711Z,99.51
2023-03-06T06:47:25.611Z,99.20
2023-03-06T06:47:55.408Z,99.62
2023-03-06T06:48:54.330Z,99.51
2023-03-06T06:49:54.359Z,99.24
2023-03-06T06:50:54.314Z,99.45
2023-03-06T06:51:54.324Z,99.14
2023-03-06T06:52:54.278Z,99.24
2023-03-06T06:53:54.282Z,99.30
2023-03-06T06:54:54.279Z,99.20
2023-03-06T06:55:54.251Z,98.93
2023-03-06T06:56:54.243Z,98.72
2023-03-06T06:57:54.233Z,98.83
2023-03-06T06:58:57.417Z,99.14
2023-03-06T06:59:55.271Z,99.55
2023-03-06T07:00:54.208Z,99.66
2023-03-06T07:01:54.196Z,99.55
2023-03-06T07:02:54.187Z,99.60
2023-03-06T07:03:54.223Z,99.60
2023-03-06T07:05:03.795Z,99.14
2023-03-06T07:05:55.152Z,99.18
2023-03-06T07:06:54.134Z,99.50
2023-03-06T07:07:54.124Z,98.87
2023-03-06T07:08:56.059Z,99.29
2023-03-06T07:09:54.096Z,99.40
2023-03-06T07:10:54.094Z,99.98
2023-03-06T07:11:54.074Z,99.99
2023-03-06T07:12:54.061Z,99.99
2023-03-06T07:13:54.055Z,99.99
2023-03-06T07:14:54.064Z,99.99
2023-03-06T07:15:54.211Z,99.99
2023-03-06T07:16:54.022Z,99.76
2023-03-06T07:17:54.015Z,99.87
2023-03-06T07:18:53.994Z,99.66
2023-03-06T07:19:53.990Z,99.51
2023-03-06T07:20:53.979Z,99.87
2023-03-06T07:21:53.969Z,99.82
2023-03-06T07:22:53.951Z,99.93
2023-03-06T07:23:53.964Z,99.51
2023-03-06T07:24:53.933Z,99.93
2023-03-06T07:25:53.926Z,99.93
2023-03-06T07:26:53.905Z,99.93
2023-03-06T07:27:54.601Z,99.93
2023-03-06T07:28:53.966Z,99.72
2023-03-06T07:29:53.880Z,99.82
2023-03-06T07:30:54.490Z,99.82
2023-03-06T07:31:53.888Z,99.98
2023-03-06T07:32:53.868Z,99.99
2023-03-06T07:33:53.831Z,99.82
2023-03-06T07:35:02.719Z,99.72
2023-03-06T07:35:54.830Z,99.99
2023-03-06T07:36:53.907Z,99.93
2023-03-06T07:37:53.792Z,99.93
2023-03-06T07:38:53.774Z,99.93
2023-03-06T07:39:53.771Z,99.99
2023-03-06T07:40:53.753Z,99.55
2023-03-06T07:41:53.749Z,99.72
2023-03-06T07:42:53.735Z,99.51
2023-03-06T07:43:53.726Z,99.62
2023-03-06T07:44:53.723Z,99.93
2023-03-06T07:45:53.711Z,99.93
2023-03-06T07:46:53.907Z,99.93
2023-03-06T07:47:53.700Z,99.99
2023-03-06T07:48:53.664Z,99.99
2023-03-06T07:49:53.682Z,99.93
2023-03-06T07:50:53.653Z,99.82
2023-03-06T07:51:53.658Z,99.93
2023-03-06T07:52:53.633Z,99.82
2023-03-06T07:53:53.612Z,99.93
2023-03-06T07:54:53.605Z,99.67
2023-03-06T07:55:53.595Z,99.72
2023-03-06T07:56:53.582Z,99.72
2023-03-06T07:57:53.581Z,99.72
2023-03-06T07:58:55.325Z,99.93
2023-03-06T07:59:53.552Z,99.88
2023-03-06T08:00:53.536Z,99.72
2023-03-06T08:01:53.527Z,99.93
2023-03-06T08:02:53.656Z,99.99
2023-03-06T08:03:53.655Z,99.77
2023-03-06T08:04:53.493Z,99.94
2023-03-06T08:05:53.487Z,99.63
2023-03-06T08:06:53.475Z,99.63
2023-03-06T08:07:53.460Z,99.94
2023-03-06T08:08:53.467Z,99.99
2023-03-06T08:09:53.453Z,99.99
2023-03-06T08:10:53.433Z,99.99
2023-03-06T08:11:53.415Z,99.68
2023-03-06T08:12:53.405Z,99.52
2023-03-06T08:13:53.391Z,99.37
2023-03-06T08:14:53.398Z,99.79
2023-03-06T08:15:53.497Z,99.79
2023-03-06T08:16:53.355Z,99.79
2023-03-06T08:17:53.343Z,99.37
2023-03-06T08:18:53.336Z,99.37
2023-03-06T08:19:53.392Z,99.68
2023-03-06T08:20:53.321Z,99.68
2023-03-06T08:21:53.300Z,99.54
2023-03-06T08:22:53.292Z,99.43
2023-03-06T08:23:53.291Z,99.64
2023-03-06T08:24:53.271Z,99.95
2023-03-06T08:25:53.272Z,99.54
2023-03-06T08:26:53.246Z,99.99
2023-03-06T08:27:53.236Z,99.99
2023-03-06T08:28:53.219Z,99.85
2023-03-06T08:29:53.213Z,99.59
2023-03-06T08:30:53.203Z,99.49
2023-03-06T08:31:53.273Z,99.43
2023-03-06T08:32:53.497Z,98.86
2023-03-06T08:33:53.977Z,98.81
2023-03-06T08:34:53.161Z,99.22
2023-03-06T08:35:53.216Z,99.33
2023-03-06T08:36:53.137Z,99.12
2023-03-06T08:37:53.133Z,98.60
2023-03-06T08:38:53.116Z,98.91
2023-03-06T08:39:53.102Z,98.81
2023-03-06T08:40:53.096Z,98.71
2023-03-06T08:41:53.087Z,98.81
2023-03-06T08:42:53.084Z,98.91
2023-03-06T08:43:53.059Z,98.86
2023-03-06T08:44:53.046Z,99.02
2023-03-06T08:45:53.120Z,98.66
2023-03-06T08:46:53.027Z,98.97
2023-03-06T08:47:53.052Z,98.97
2023-03-06T08:48:53.010Z,99.02
2023-03-06T08:49:53.004Z,98.91
2023-03-06T08:50:52.978Z,98.91
2023-03-06T08:51:53.015Z,98.86
2023-03-06T08:52:52.957Z,99.07
2023-03-06T08:53:52.966Z,98.91
2023-03-06T08:54:52.954Z,98.86
2023-03-06T08:55:52.933Z,99.18
2023-03-06T08:56:52.918Z,99.07
2023-03-06T08:57:52.898Z,99.28
2023-03-06T08:58:52.901Z,99.28
2023-03-06T08:59:52.883Z,99.28
2023-03-06T09:00:53.061Z,99.49
2023-03-06T09:01:52.971Z,99.07
2023-03-06T09:02:52.855Z,99.18
2023-03-06T09:03:52.860Z,99.07
2023-03-06T09:04:52.840Z,99.07
2023-03-06T09:05:52.812Z,99.03
2023-03-06T09:06:54.571Z,99.38
2023-03-06T09:07:52.830Z,99.03
2023-03-06T09:08:52.805Z,99.44
2023-03-06T09:09:52.766Z,99.24
2023-03-06T09:10:52.822Z,99.24
2023-03-06T09:11:52.750Z,99.34
2023-03-06T09:12:54.803Z,99.40
2023-03-06T09:13:52.757Z,99.09
2023-03-06T09:14:52.742Z,99.34
2023-03-06T09:15:52.700Z,99.13
2023-03-06T09:16:52.817Z,99.09
2023-03-06T09:17:52.719Z,98.78
2023-03-06T09:18:59.792Z,99.40
2023-03-06T09:19:52.671Z,99.40
2023-03-06T09:20:52.651Z,99.09
2023-03-06T09:21:52.633Z,98.99
2023-03-06T09:22:52.629Z,99.25
2023-03-06T09:23:52.635Z,98.83
2023-03-06T09:24:52.617Z,99.04
2023-03-06T09:25:52.621Z,98.83
2023-03-06T09:26:52.586Z,98.42
2023-03-06T09:28:08.803Z,98.52
2023-03-06T09:28:53.562Z,98.32
2023-03-06T09:29:52.561Z,98.94
2023-03-06T09:30:52.604Z,98.69
2023-03-06T09:31:52.532Z,98.17
2023-03-06T09:32:52.521Z,98.48
2023-03-06T09:33:52.520Z,97.86
2023-03-06T09:34:52.518Z,97.13
2023-03-06T09:35:52.487Z,97.24
2023-03-06T09:36:57.128Z,97.55
2023-03-06T09:37:53.462Z,97.29
2023-03-06T09:38:52.453Z,96.78
2023-03-06T09:39:52.480Z,97.09
2023-03-06T09:40:52.449Z,96.31
2023-03-06T09:41:52.434Z,96.52
2023-03-06T09:42:52.408Z,96.11
2023-03-06T09:43:52.401Z,95.80
2023-03-06T09:44:52.402Z,95.18
2023-03-06T09:45:52.413Z,94.66
2023-03-06T09:46:52.377Z,94.97
2023-03-06T09:47:52.363Z,94.82
2023-03-06T09:48:52.346Z,94.47
2023-03-06T09:49:52.326Z,94.57
2023-03-06T09:50:52.315Z,94.26
2023-03-06T09:51:52.312Z,93.70
2023-03-06T09:52:52.303Z,93.60
2023-03-06T09:53:52.284Z,92.87
2023-03-06T09:54:52.270Z,92.36
2023-03-06T09:55:52.276Z,92.46
2023-03-06T09:56:52.258Z,91.42
2023-03-06T09:57:52.495Z,91.16
2023-03-06T09:58:52.242Z,91.57
2023-03-06T09:59:52.234Z,91.36
2023-03-06T10:00:52.198Z,91.72
2023-03-06T10:01:52.230Z,91.30
2023-03-06T10:02:52.298Z,90.58
2023-03-06T10:03:52.176Z,90.37
2023-03-06T10:04:52.239Z,90.62
2023-03-06T10:05:52.156Z,90.52
2023-03-06T10:06:52.132Z,90.41
2023-03-06T10:07:52.126Z,90.10
2023-03-06T10:08:52.114Z,90.41
2023-03-06T10:09:52.104Z,90.93
2023-03-06T10:10:52.086Z,91.45
2023-03-06T10:11:52.104Z,91.24
2023-03-06T10:12:52.062Z,91.86
2023-03-06T10:13:52.058Z,91.35
2023-03-06T10:14:52.057Z,91.35
2023-03-06T10:15:52.100Z,91.35
2023-03-06T10:16:52.017Z,91.45
2023-03-06T10:17:52.003Z,91.51
2023-03-06T10:18:52.001Z,91.82
2023-03-06T10:19:51.997Z,91.78
2023-03-06T10:20:51.988Z,90.91
2023-03-06T10:21:51.958Z,91.28
2023-03-06T10:23:00.648Z,89.52
2023-03-06T10:23:52.938Z,88.74
2023-03-06T10:24:51.936Z,87.70
2023-03-06T10:25:51.936Z,88.06
2023-03-06T10:26:52.096Z,88.06
2023-03-06T10:27:51.925Z,88.06
2023-03-06T10:28:51.887Z,88.16
2023-03-06T10:30:02.102Z,88.32
2023-03-06T10:30:52.924Z,88.84
2023-03-06T10:31:51.861Z,88.74
2023-03-06T10:32:51.897Z,88.64
2023-03-06T10:33:51.842Z,87.91
2023-03-06T10:34:51.818Z,88.12
2023-03-06T10:35:51.852Z,88.12
2023-03-06T10:36:51.807Z,87.76
2023-03-06T10:37:51.791Z,87.87
2023-03-06T10:38:51.793Z,87.83
2023-03-06T10:39:51.758Z,87.31
2023-03-06T10:40:51.758Z,87.00
2023-03-06T10:41:51.752Z,86.90
2023-03-06T10:43:01.632Z,86.69
2023-03-06T10:43:52.748Z,87.25
2023-03-06T10:44:51.710Z,86.73
2023-03-06T10:45:51.707Z,86.69
2023-03-06T10:46:51.708Z,85.91
2023-03-06T10:47:51.680Z,84.66
2023-03-06T10:48:51.669Z,85.18
2023-03-06T10:49:51.657Z,85.49
2023-03-06T10:50:51.672Z,85.28
2023-03-06T10:51:51.627Z,85.18
2023-03-06T10:52:51.630Z,84.94
2023-03-06T10:53:51.604Z,85.04
2023-03-06T10:54:51.590Z,84.94
2023-03-06T10:55:51.580Z,83.70
2023-03-06T10:56:51.744Z,83.04
2023-03-06T10:57:51.555Z,83.34
2023-03-06T10:58:51.545Z,83.78
2023-03-06T10:59:51.587Z,83.89
2023-03-06T11:00:51.525Z,82.71
2023-03-06T11:01:51.550Z,82.68
2023-03-06T11:02:51.510Z,81.85
2023-03-06T11:03:51.484Z,80.20
2023-03-06T11:04:51.561Z,78.76
2023-03-06T11:05:51.463Z,78.21
2023-03-06T11:06:51.485Z,78.48
2023-03-06T11:07:51.439Z,77.76
2023-03-06T11:08:51.430Z,77.83
2023-03-06T11:09:51.416Z,76.28
2023-03-06T11:10:51.436Z,75.42
2023-03-06T11:11:51.397Z,75.35
2023-03-06T11:12:51.388Z,74.63
2023-03-06T11:13:51.386Z,73.81
2023-03-06T11:14:51.374Z,74.43
2023-03-06T11:15:51.410Z,73.71
2023-03-06T11:16:51.366Z,72.44
2023-03-06T11:17:51.368Z,73.68
2023-03-06T11:18:51.328Z,73.98
2023-03-06T11:19:51.303Z,74.36
2023-03-06T11:20:53.005Z,74.46
2023-03-06T11:21:51.292Z,74.77
2023-03-06T11:22:51.274Z,75.15
2023-03-06T11:23:51.271Z,75.01
2023-03-06T11:24:51.249Z,74.02
2023-03-06T11:25:51.267Z,71.79
2023-03-06T11:26:51.364Z,71.07
2023-03-06T11:27:51.220Z,72.58
2023-03-06T11:28:51.250Z,73.19
2023-03-06T11:29:51.191Z,71.24
2023-03-06T11:30:51.191Z,69.90
2023-03-06T11:31:51.202Z,69.49
2023-03-06T11:32:51.200Z,71.55
2023-03-06T11:33:51.150Z,71.04
2023-03-06T11:34:51.184Z,69.53
2023-03-06T11:35:51.172Z,69.73
2023-03-06T11:36:51.136Z,68.50
2023-03-06T11:37:51.096Z,68.35
2023-03-06T11:38:51.087Z,69.21
2023-03-06T11:39:51.085Z,69.73
2023-03-06T11:40:51.102Z,70.79
2023-03-06T11:41:51.053Z,70.28
2023-03-06T11:42:51.061Z,70.92
2023-03-06T11:43:51.051Z,71.37
2023-03-06T11:44:51.023Z,71.55
2023-03-06T11:45:51.009Z,72.61
2023-03-06T11:46:51.102Z,72.33
2023-03-06T11:47:51.032Z,72.44
2023-03-06T11:48:50.976Z,72.40
2023-03-06T11:49:50.970Z,73.33
2023-03-06T11:50:51.054Z,74.05
2023-03-06T11:51:50.948Z,73.74
2023-03-06T11:52:50.946Z,75.29
2023-03-06T11:53:50.922Z,75.32
2023-03-06T11:54:50.910Z,74.81
2023-03-06T11:55:50.984Z,74.81
2023-03-06T11:56:50.952Z,75.12
2023-03-06T11:57:50.881Z,75.22
2023-03-06T11:58:50.873Z,75.53
2023-03-06T11:59:50.887Z,75.63
2023-03-06T12:00:50.860Z,76.98
2023-03-06T12:01:50.878Z,76.87
2023-03-06T12:02:50.836Z,77.87
2023-03-06T12:03:50.847Z,77.36
2023-03-06T12:04:50.815Z,76.94
2023-03-06T12:05:50.805Z,75.53
2023-03-06T12:06:50.801Z,74.91
2023-03-06T12:07:50.790Z,75.12
2023-03-06T12:08:50.760Z,74.81
2023-03-06T12:09:50.743Z,74.71
2023-03-06T12:10:51.890Z,75.12
2023-03-06T12:11:50.720Z,74.98
2023-03-06T12:12:50.776Z,74.77
2023-03-06T12:14:50.690Z,73.95
2023-03-06T12:15:50.683Z,73.54
2023-03-06T12:16:50.731Z,73.74
2023-03-06T12:17:50.693Z,73.60
2023-03-06T12:18:50.637Z,73.16
2023-03-06T12:19:50.660Z,72.23
2023-03-06T12:20:50.631Z,72.50
2023-03-06T12:21:50.601Z,74.12
2023-03-06T12:22:57.964Z,73.88
2023-03-06T12:23:51.630Z,73.85
2023-03-06T12:24:50.574Z,72.13
2023-03-06T12:25:50.566Z,71.99
2023-03-06T12:26:50.553Z,71.27
2023-03-06T12:27:50.555Z,71.24
2023-03-06T12:28:50.532Z,71.65
2023-03-06T12:29:50.526Z,70.14
2023-03-06T12:30:50.515Z,68.70
2023-03-06T12:31:50.566Z,69.42
2023-03-06T12:32:50.553Z,69.62
2023-03-06T12:33:50.467Z,68.52
2023-03-06T12:34:50.452Z,69.35
2023-03-06T12:35:50.572Z,70.07
2023-03-06T12:36:50.435Z,69.04
2023-03-06T12:37:50.422Z,69.55
2023-03-06T12:38:50.415Z,69.76
2023-03-06T12:39:50.407Z,68.93
2023-03-06T12:40:50.390Z,68.59
2023-03-06T12:41:50.392Z,67.90
2023-03-06T12:42:50.364Z,68.32
2023-03-06T12:43:50.366Z,69.17
2023-03-06T12:44:50.346Z,69.79
2023-03-06T12:45:50.362Z,70.31
2023-03-06T12:46:50.317Z,70.72
2023-03-06T12:47:50.311Z,72.03
2023-03-06T12:48:50.329Z,72.44
2023-03-06T12:49:50.289Z,73.05
2023-03-06T12:50:50.276Z,73.16
2023-03-06T12:51:50.312Z,72.30
2023-03-06T12:52:50.255Z,72.23
2023-03-06T12:53:50.242Z,69.96